Time;durP1;ratioP1;P1;durP2;ratioP2;P2;SDS_P1;SDS_P2;PMS_P1;PMS_P2;Temp;Humidity;BMP_temperature;BMP_pressure;BME280_temperature;BME280_humidity;BME280_pressure;Samples;Min_cycle;Max_cycle;Signal;HPM_P1;HPM_P2
2021/12/29 00:00:23;;;;;;;;;;;6.20;99.90;;;;;;6122908;23;19936;-84
2021/12/29 00:02:49;;;;;;;;;;;6.20;99.90;;;;;;6147243;23;19975;-85
2021/12/29 00:05:15;;;;;;;;;;;6.20;99.90;;;;;;6146787;23;19925;-84
2021/12/29 00:07:40;;;;;;;;;;;6.20;99.90;;;;;;6150002;23;20479;-84
2021/12/29 00:10:07;;;;;;;;;;;6.20;99.90;;;;;;6148071;23;20300;-84
2021/12/29 00:12:39;;;;;;;;;;;6.20;99.90;;;;;;6150457;23;19991;-84
2021/12/29 00:15:05;;;;;;;;;;;6.20;99.90;;;;;;6149073;23;19975;-84
2021/12/29 00:17:31;;;;;;;;;;;6.20;99.90;;;;;;6149511;23;20008;-84
2021/12/29 00:19:56;;;;;;;;;;;6.20;99.90;;;;;;6148535;23;20009;-84
2021/12/29 00:22:22;;;;;;;;;;;6.10;99.90;;;;;;6124917;23;19979;-84
2021/12/29 00:24:48;;;;;;;;;;;6.10;99.90;;;;;;6148963;23;19947;-84
2021/12/29 00:27:13;;;;;;;;;;;6.10;99.90;;;;;;6125691;23;19920;-84
2021/12/29 00:29:39;;;;;;;;;;;6.10;99.90;;;;;;6124778;23;20432;-84
2021/12/29 00:32:05;;;;;;;;;;;6.10;99.90;;;;;;6149305;23;19956;-84
2021/12/29 00:34:30;;;;;;;;;;;6.10;99.90;;;;;;6149030;23;19924;-83
2021/12/29 00:36:56;;;;;;;;;;;6.00;99.90;;;;;;6149114;23;20376;-83
2021/12/29 00:39:21;;;;;;;;;;;6.10;99.90;;;;;;6122631;23;19920;-85
2021/12/29 00:41:47;;;;;;;;;;;6.00;99.90;;;;;;6124815;23;19928;-84
2021/12/29 00:44:12;;;;;;;;;;;6.00;99.90;;;;;;6124326;23;19979;-84
2021/12/29 00:46:39;;;;;;;;;;;6.00;99.90;;;;;;6125149;23;19940;-84
2021/12/29 00:49:05;;;;;;;;;;;6.00;99.90;;;;;;6148365;23;19977;-84
2021/12/29 00:51:31;;;;;;;;;;;6.00;99.90;;;;;;6149840;23;19947;-85
2021/12/29 00:53:56;;;;;;;;;;;6.00;99.90;;;;;;6124228;23;20487;-84
2021/12/29 00:56:22;;;;;;;;;;;6.00;99.90;;;;;;6148299;23;20210;-85
2021/12/29 00:58:47;;;;;;;;;;;6.00;99.90;;;;;;6148147;23;19933;-84
2021/12/29 01:01:13;;;;;;;;;;;6.00;99.90;;;;;;6124870;23;20248;-85
2021/12/29 01:03:39;;;;;;;;;;;6.00;99.90;;;;;;6149717;23;19973;-85
2021/12/29 01:06:05;;;;;;;;;;;6.00;99.90;;;;;;6148746;23;19921;-83
2021/12/29 01:08:31;;;;;;;;;;;6.00;99.90;;;;;;6150615;23;19956;-85
2021/12/29 01:10:56;;;;;;;;;;;6.00;99.90;;;;;;6149381;23;19921;-85
2021/12/29 01:13:30;;;;;;;;;;;6.00;99.90;;;;;;6123023;23;20632;-86
2021/12/29 01:15:58;;;;;;;;;;;6.00;99.90;;;;;;6147808;23;20289;-84
2021/12/29 01:18:27;;;;;;;;;;;6.00;99.90;;;;;;6149313;23;19929;-84
2021/12/29 01:20:53;;;;;;;;;;;6.00;99.90;;;;;;6147424;23;20026;-84
2021/12/29 01:23:19;;;;;;;;;;;6.00;99.90;;;;;;6149313;23;19928;-83
2021/12/29 01:25:44;;;;;;;;;;;6.00;99.90;;;;;;6124517;23;20330;-84
2021/12/29 01:28:10;;;;;;;;;;;6.00;99.90;;;;;;6148697;23;20015;-84
2021/12/29 01:30:36;;;;;;;;;;;6.00;99.90;;;;;;6149286;23;19959;-84
2021/12/29 01:33:05;;;;;;;;;;;6.00;99.90;;;;;;6150026;23;20003;-84
2021/12/29 01:35:35;;;;;;;;;;;6.00;99.90;;;;;;6146910;23;20286;-85
2021/12/29 01:38:01;;;;;;;;;;;6.00;99.90;;;;;;6124459;23;19932;-84
2021/12/29 01:40:27;;;;;;;;;;;6.00;99.90;;;;;;6123176;23;20261;-84
2021/12/29 01:42:52;;;;;;;;;;;6.00;99.90;;;;;;6147885;23;19952;-85
2021/12/29 01:45:18;;;;;;;;;;;6.10;99.90;;;;;;6148534;23;19935;-84
2021/12/29 01:47:43;;;;;;;;;;;6.10;99.90;;;;;;6149446;23;19927;-85
2021/12/29 01:50:11;;;;;;;;;;;6.10;99.90;;;;;;6147759;23;19921;-84
2021/12/29 01:52:39;;;;;;;;;;;6.10;99.90;;;;;;6150276;23;19967;-84
2021/12/29 01:55:06;;;;;;;;;;;6.10;99.90;;;;;;6148707;23;20199;-84
2021/12/29 01:57:32;;;;;;;;;;;6.10;99.90;;;;;;6149741;23;19921;-85
2021/12/29 01:59:58;;;;;;;;;;;6.10;99.90;;;;;;6124413;23;20448;-85
2021/12/29 02:02:23;;;;;;;;;;;6.10;99.90;;;;;;6148691;23;20007;-85
2021/12/29 02:04:49;;;;;;;;;;;6.10;99.90;;;;;;6122674;23;19968;-85
2021/12/29 02:07:14;;;;;;;;;;;6.20;99.90;;;;;;6149087;23;19983;-85
2021/12/29 02:09:40;;;;;;;;;;;6.20;99.90;;;;;;6121207;23;19959;-85
2021/12/29 02:12:06;;;;;;;;;;;6.20;99.90;;;;;;6148949;23;20581;-85
2021/12/29 02:14:32;;;;;;;;;;;6.20;99.90;;;;;;6148153;23;20253;-85
2021/12/29 02:16:58;;;;;;;;;;;6.20;99.90;;;;;;6148239;23;19925;-85
2021/12/29 02:19:25;;;;;;;;;;;6.20;99.90;;;;;;6147755;23;19931;-84
2021/12/29 02:21:57;;;;;;;;;;;6.20;99.90;;;;;;6149448;23;20003;-84
2021/12/29 02:24:35;;;;;;;;;;;6.30;99.90;;;;;;6147774;23;20226;-85
2021/12/29 02:27:01;;;;;;;;;;;6.30;99.90;;;;;;6149029;23;19927;-85
2021/12/29 02:29:27;;;;;;;;;;;6.20;99.90;;;;;;6146568;23;20274;-83
2021/12/29 02:31:53;;;;;;;;;;;6.20;99.90;;;;;;6147739;23;19944;-85
2021/12/29 02:34:18;;;;;;;;;;;6.30;99.90;;;;;;6148171;23;19924;-85
2021/12/29 02:36:45;;;;;;;;;;;6.30;99.90;;;;;;6149189;23;19920;-84
2021/12/29 02:39:12;;;;;;;;;;;6.30;99.90;;;;;;6148766;23;19982;-85
2021/12/29 02:41:40;;;;;;;;;;;6.30;99.90;;;;;;6149285;23;19924;-85
2021/12/29 02:44:10;;;;;;;;;;;6.30;99.90;;;;;;6147056;23;19928;-85
2021/12/29 02:46:36;;;;;;;;;;;6.30;99.90;;;;;;6124005;23;20024;-84
2021/12/29 02:49:02;;;;;;;;;;;6.30;99.90;;;;;;6148012;23;20010;-84
2021/12/29 02:51:28;;;;;;;;;;;6.30;99.90;;;;;;6147538;23;19921;-83
2021/12/29 02:53:54;;;;;;;;;;;6.40;99.90;;;;;;6124176;23;19936;-83
2021/12/29 02:56:19;;;;;;;;;;;6.30;99.90;;;;;;6123325;23;20039;-84
2021/12/29 02:58:45;;;;;;;;;;;6.30;99.90;;;;;;6146335;23;20016;-84
2021/12/29 03:01:12;;;;;;;;;;;6.30;99.90;;;;;;6147579;23;20333;-84
2021/12/29 03:03:37;;;;;;;;;;;6.40;99.90;;;;;;6149068;23;19983;-84
2021/12/29 03:06:04;;;;;;;;;;;6.40;99.90;;;;;;6121054;23;20729;-84
2021/12/29 03:08:29;;;;;;;;;;;6.40;99.90;;;;;;6147824;23;20019;-84
2021/12/29 03:10:55;;;;;;;;;;;6.40;99.90;;;;;;6148080;23;19955;-86
2021/12/29 03:13:22;;;;;;;;;;;6.40;99.90;;;;;;6122707;23;19960;-84
2021/12/29 03:15:47;;;;;;;;;;;6.50;99.90;;;;;;6146774;23;20302;-85
2021/12/29 03:18:13;;;;;;;;;;;6.40;99.90;;;;;;6147645;23;19932;-84
2021/12/29 03:20:38;;;;;;;;;;;6.50;99.90;;;;;;6145454;23;19921;-85
2021/12/29 03:23:04;;;;;;;;;;;6.50;99.90;;;;;;6148464;23;19920;-85
2021/12/29 03:25:29;;;;;;;;;;;6.50;99.90;;;;;;6148593;23;20081;-85
2021/12/29 03:28:00;;;;;;;;;;;6.50;99.90;;;;;;6123373;23;20019;-84
2021/12/29 03:30:31;;;;;;;;;;;6.50;99.90;;;;;;6148133;23;19928;-84
2021/12/29 03:33:03;;;;;;;;;;;6.50;99.90;;;;;;6147474;23;19921;-87
2021/12/29 03:35:29;;;;;;;;;;;6.50;99.90;;;;;;6146424;23;20039;-85
2021/12/29 03:37:55;;;;;;;;;;;6.50;99.90;;;;;;6148126;23;19967;-85
2021/12/29 03:40:20;;;;;;;;;;;6.50;99.90;;;;;;6147120;23;19924;-86
2021/12/29 03:42:46;;;;;;;;;;;6.60;99.90;;;;;;6148039;23;19920;-87
2021/12/29 03:45:11;;;;;;;;;;;6.60;99.90;;;;;;6147858;23;19921;-86
2021/12/29 03:47:37;;;;;;;;;;;6.60;99.90;;;;;;6144518;23;19921;-86
2021/12/29 03:50:03;;;;;;;;;;;6.60;99.90;;;;;;6145429;23;20282;-86
2021/12/29 03:52:28;;;;;;;;;;;6.60;99.90;;;;;;6146248;23;19928;-86
2021/12/29 03:54:54;;;;;;;;;;;6.60;99.90;;;;;;6120982;23;19920;-86
2021/12/29 03:57:19;;;;;;;;;;;6.60;99.90;;;;;;6148420;23;19925;-87
2021/12/29 03:59:45;;;;;;;;;;;6.60;99.90;;;;;;6147175;23;20400;-86
2021/12/29 04:02:10;;;;;;;;;;;6.60;99.90;;;;;;6122299;23;19947;-86
2021/12/29 04:04:36;;;;;;;;;;;6.60;99.90;;;;;;6146324;23;19927;-87
2021/12/29 04:07:01;;;;;;;;;;;6.60;99.90;;;;;;6122109;23;19920;-86
2021/12/29 04:09:27;;;;;;;;;;;6.60;99.90;;;;;;6146347;23;20330;-85
2021/12/29 04:11:52;;;;;;;;;;;6.60;99.90;;;;;;6148864;23;19928;-85
2021/12/29 04:14:20;;;;;;;;;;;6.60;99.90;;;;;;6148096;23;19936;-86
2021/12/29 04:16:47;;;;;;;;;;;6.60;99.90;;;;;;6147896;23;19920;-87
2021/12/29 04:19:29;;;;;;;;;;;6.60;99.90;;;;;;6147063;23;20016;-87
2021/12/29 04:21:55;;;;;;;;;;;6.60;99.90;;;;;;6150531;23;19996;-86
2021/12/29 04:24:21;;;;;;;;;;;6.60;99.90;;;;;;6122342;23;19931;-86
2021/12/29 04:26:46;;;;;;;;;;;6.60;99.90;;;;;;6147914;23;19921;-86
2021/12/29 04:29:13;;;;;;;;;;;6.60;99.90;;;;;;6123404;23;19925;-86
2021/12/29 04:31:39;;;;;;;;;;;6.60;99.90;;;;;;6122839;23;20024;-86
2021/12/29 04:34:04;;;;;;;;;;;6.60;99.90;;;;;;6146653;23;19997;-84
2021/12/29 04:36:30;;;;;;;;;;;6.60;99.90;;;;;;6147809;23;19926;-85
2021/12/29 04:38:58;;;;;;;;;;;6.70;99.90;;;;;;6146784;23;20473;-84
2021/12/29 04:41:26;;;;;;;;;;;6.70;99.90;;;;;;6147137;23;19920;-84
2021/12/29 04:43:52;;;;;;;;;;;6.70;99.90;;;;;;6144978;23;19999;-84
2021/12/29 04:46:19;;;;;;;;;;;6.70;99.90;;;;;;6147645;23;20015;-85
2021/12/29 04:49:00;;;;;;;;;;;6.70;99.90;;;;;;6147755;23;19920;-86
2021/12/29 04:51:34;;;;;;;;;;;6.70;99.90;;;;;;6147641;23;20316;-87
2021/12/29 04:54:00;;;;;;;;;;;6.70;99.90;;;;;;6125038;23;19995;-87
2021/12/29 04:56:26;;;;;;;;;;;6.70;99.90;;;;;;6149365;23;19995;-86
2021/12/29 04:58:51;;;;;;;;;;;6.70;99.90;;;;;;6148696;23;19959;-86
2021/12/29 05:01:17;;;;;;;;;;;6.70;99.90;;;;;;6150505;23;19927;-86
2021/12/29 05:03:44;;;;;;;;;;;6.70;99.90;;;;;;6150042;23;19955;-87
2021/12/29 05:08:36;;;;;;;;;;;6.70;99.90;;;;;;6124519;23;20367;-86
2021/12/29 05:11:03;;;;;;;;;;;6.70;99.90;;;;;;6123723;23;19924;-87
2021/12/29 05:13:30;;;;;;;;;;;6.70;99.90;;;;;;6148532;23;19956;-86
2021/12/29 05:15:56;;;;;;;;;;;6.80;99.90;;;;;;6149891;23;19976;-87
2021/12/29 05:18:26;;;;;;;;;;;6.70;99.90;;;;;;6150201;23;19928;-87
2021/12/29 05:20:51;;;;;;;;;;;6.70;99.90;;;;;;6121038;23;19948;-85
2021/12/29 05:23:17;;;;;;;;;;;6.70;99.90;;;;;;6125273;23;19931;-86
2021/12/29 05:25:43;;;;;;;;;;;6.80;99.90;;;;;;6124759;23;19924;-86
2021/12/29 05:28:08;;;;;;;;;;;6.70;99.90;;;;;;6124443;23;20007;-86
2021/12/29 05:30:34;;;;;;;;;;;6.70;99.90;;;;;;6148958;23;19920;-87
2021/12/29 05:33:00;;;;;;;;;;;6.80;99.90;;;;;;6149164;23;19921;-86
2021/12/29 05:35:27;;;;;;;;;;;6.70;99.90;;;;;;6123435;23;19921;-85
2021/12/29 05:37:52;;;;;;;;;;;6.80;99.90;;;;;;6124316;23;19950;-85
2021/12/29 05:40:18;;;;;;;;;;;6.80;99.90;;;;;;6147642;23;20007;-86
2021/12/29 05:42:43;;;;;;;;;;;6.80;99.90;;;;;;6148247;23;20092;-86
2021/12/29 05:45:10;;;;;;;;;;;6.80;99.90;;;;;;6147895;23;20184;-86
2021/12/29 05:47:36;;;;;;;;;;;6.80;99.90;;;;;;6148075;23;19975;-84
2021/12/29 05:50:03;;;;;;;;;;;6.80;99.90;;;;;;6123738;23;19924;-85
2021/12/29 05:52:29;;;;;;;;;;;6.80;99.90;;;;;;6149131;23;19928;-85
2021/12/29 05:54:54;;;;;;;;;;;6.80;99.90;;;;;;6147871;23;20242;-86
2021/12/29 05:57:19;;;;;;;;;;;6.80;99.90;;;;;;6149482;23;20337;-83
2021/12/29 05:59:45;;;;;;;;;;;6.80;99.90;;;;;;6149288;23;19980;-84
2021/12/29 06:02:10;;;;;;;;;;;6.80;99.90;;;;;;6148359;23;19928;-83
2021/12/29 06:04:36;;;;;;;;;;;6.80;99.90;;;;;;6146488;23;19921;-83
2021/12/29 06:07:01;;;;;;;;;;;6.80;99.90;;;;;;6123686;23;19943;-84
2021/12/29 06:09:27;;;;;;;;;;;6.80;99.90;;;;;;6147259;23;19928;-85
2021/12/29 06:11:52;;;;;;;;;;;6.80;99.90;;;;;;6148117;23;19956;-84
2021/12/29 06:14:18;;;;;;;;;;;6.80;99.90;;;;;;6148805;23;20386;-84
2021/12/29 06:16:43;;;;;;;;;;;6.80;99.90;;;;;;6123345;23;19920;-85
2021/12/29 06:19:10;;;;;;;;;;;6.80;99.90;;;;;;6148434;23;19921;-84
2021/12/29 06:21:35;;;;;;;;;;;6.80;99.90;;;;;;6123432;23;19927;-83
2021/12/29 06:24:01;;;;;;;;;;;6.90;99.90;;;;;;6148031;23;19925;-84
2021/12/29 06:26:26;;;;;;;;;;;6.90;99.90;;;;;;6148050;23;19996;-85
2021/12/29 06:28:52;;;;;;;;;;;6.90;99.90;;;;;;6149298;23;19921;-84
2021/12/29 06:31:17;;;;;;;;;;;6.90;99.90;;;;;;6121821;23;19932;-83
2021/12/29 06:33:45;;;;;;;;;;;6.90;99.90;;;;;;6146166;23;19921;-85
2021/12/29 06:36:11;;;;;;;;;;;6.90;99.90;;;;;;6146426;23;20348;-84
2021/12/29 06:38:36;;;;;;;;;;;6.90;99.90;;;;;;6147999;23;19995;-84
2021/12/29 06:41:02;;;;;;;;;;;6.90;99.90;;;;;;6148301;23;19925;-84
2021/12/29 06:43:27;;;;;;;;;;;7.00;99.90;;;;;;6147799;23;19925;-84
2021/12/29 06:45:53;;;;;;;;;;;7.00;99.90;;;;;;6124065;23;19924;-83
2021/12/29 06:48:18;;;;;;;;;;;7.00;99.90;;;;;;6124179;23;19920;-84
2021/12/29 06:50:44;;;;;;;;;;;7.00;99.90;;;;;;6146793;23;19920;-84
2021/12/29 06:53:10;;;;;;;;;;;7.10;99.90;;;;;;6148565;23;19927;-83
2021/12/29 06:55:35;;;;;;;;;;;7.00;99.90;;;;;;6147446;23;19921;-84
2021/12/29 06:58:01;;;;;;;;;;;7.00;99.90;;;;;;6122184;23;20356;-84
2021/12/29 07:00:27;;;;;;;;;;;7.00;99.90;;;;;;6124057;23;19920;-84
2021/12/29 07:02:52;;;;;;;;;;;7.00;99.90;;;;;;6148598;23;19991;-84
2021/12/29 07:05:18;;;;;;;;;;;7.10;99.90;;;;;;6122273;23;19925;-85
2021/12/29 07:07:46;;;;;;;;;;;7.00;99.90;;;;;;6148639;23;20070;-84
2021/12/29 07:10:11;;;;;;;;;;;7.00;99.90;;;;;;6147555;23;20328;-84
2021/12/29 07:12:37;;;;;;;;;;;7.00;99.90;;;;;;6124005;23;20100;-85
2021/12/29 07:15:02;;;;;;;;;;;7.00;99.90;;;;;;6121176;23;20000;-85
2021/12/29 07:17:28;;;;;;;;;;;7.10;99.90;;;;;;6148285;23;20044;-84
2021/12/29 07:19:53;;;;;;;;;;;7.00;99.90;;;;;;6122579;23;20007;-84
2021/12/29 07:22:19;;;;;;;;;;;7.10;99.90;;;;;;6147336;23;19921;-83
2021/12/29 07:24:44;;;;;;;;;;;7.10;99.90;;;;;;6148099;23;19921;-84
2021/12/29 07:27:10;;;;;;;;;;;7.10;99.90;;;;;;6147835;23;19921;-84
2021/12/29 07:29:37;;;;;;;;;;;7.10;99.90;;;;;;6148933;23;19921;-83
2021/12/29 07:32:03;;;;;;;;;;;7.10;99.90;;;;;;6147995;23;19984;-84
2021/12/29 07:34:28;;;;;;;;;;;7.10;99.90;;;;;;6122784;23;19921;-83
2021/12/29 07:36:54;;;;;;;;;;;7.10;99.90;;;;;;6148992;23;19939;-84
2021/12/29 07:39:20;;;;;;;;;;;7.10;99.90;;;;;;6123303;23;19921;-84
2021/12/29 07:41:46;;;;;;;;;;;7.10;99.90;;;;;;6122184;23;20377;-83
2021/12/29 07:44:13;;;;;;;;;;;7.10;99.90;;;;;;6148519;23;19987;-84
2021/12/29 07:46:38;;;;;;;;;;;7.10;99.90;;;;;;6147339;23;20237;-86
2021/12/29 07:49:04;;;;;;;;;;;7.10;99.90;;;;;;6147317;23;19932;-84
2021/12/29 07:51:30;;;;;;;;;;;7.10;99.90;;;;;;6122980;23;19925;-86
2021/12/29 07:53:56;;;;;;;;;;;7.20;99.90;;;;;;6148427;23;19924;-85
2021/12/29 07:56:22;;;;;;;;;;;7.10;99.90;;;;;;6149060;23;20337;-86
2021/12/29 07:58:48;;;;;;;;;;;7.20;99.90;;;;;;6149092;23;20003;-86
2021/12/29 08:01:13;;;;;;;;;;;7.20;99.90;;;;;;6125238;23;19956;-86
2021/12/29 08:03:39;;;;;;;;;;;7.20;99.90;;;;;;6149798;23;19989;-86
2021/12/29 08:06:05;;;;;;;;;;;7.20;99.90;;;;;;6149327;23;19921;-86
2021/12/29 08:08:30;;;;;;;;;;;7.20;99.90;;;;;;6147213;23;19925;-85
2021/12/29 08:10:56;;;;;;;;;;;7.20;99.90;;;;;;6146792;23;20282;-85
2021/12/29 08:13:22;;;;;;;;;;;7.20;99.90;;;;;;6147352;23;20004;-85
2021/12/29 08:15:48;;;;;;;;;;;7.20;99.90;;;;;;6147188;23;19956;-85
2021/12/29 08:18:13;;;;;;;;;;;7.20;99.90;;;;;;6122539;23;19979;-84
2021/12/29 08:20:39;;;;;;;;;;;7.40;99.90;;;;;;6150525;23;20027;-85
2021/12/29 08:23:05;;;;;;;;;;;7.50;99.90;;;;;;6146685;23;19920;-86
2021/12/29 08:25:31;;;;;;;;;;;7.30;99.90;;;;;;6149112;23;19925;-86
2021/12/29 08:27:57;;;;;;;;;;;7.30;99.90;;;;;;6150237;23;19944;-86
2021/12/29 08:30:23;;;;;;;;;;;7.30;99.90;;;;;;6150768;23;19967;-87
2021/12/29 08:32:48;;;;;;;;;;;7.40;99.90;;;;;;6151527;23;19927;-86
2021/12/29 08:35:14;;;;;;;;;;;7.40;99.90;;;;;;6149304;23;19996;-86
2021/12/29 08:37:40;;;;;;;;;;;7.40;99.90;;;;;;6123440;23;19943;-86
2021/12/29 08:40:07;;;;;;;;;;;7.40;99.90;;;;;;6125822;23;19920;-86
2021/12/29 08:42:33;;;;;;;;;;;7.40;99.90;;;;;;6124428;23;19952;-85
2021/12/29 08:44:58;;;;;;;;;;;7.40;99.90;;;;;;6148930;23;19927;-86
2021/12/29 08:47:24;;;;;;;;;;;7.40;99.90;;;;;;6124261;23;19924;-87
2021/12/29 08:49:49;;;;;;;;;;;7.50;99.90;;;;;;6148686;23;19975;-86
2021/12/29 08:52:15;;;;;;;;;;;7.60;99.90;;;;;;6149638;23;20230;-87
2021/12/29 08:54:40;;;;;;;;;;;7.50;99.90;;;;;;6124167;23;19975;-86
2021/12/29 08:57:06;;;;;;;;;;;7.60;99.90;;;;;;6124740;23;19924;-87
2021/12/29 08:59:32;;;;;;;;;;;7.40;99.90;;;;;;6125176;23;19921;-87
2021/12/29 09:01:57;;;;;;;;;;;7.50;99.90;;;;;;6148743;23;19958;-87
2021/12/29 09:04:23;;;;;;;;;;;7.40;99.90;;;;;;6148944;23;20144;-87
2021/12/29 09:06:49;;;;;;;;;;;7.40;99.90;;;;;;6150779;23;19926;-88
2021/12/29 09:09:14;;;;;;;;;;;7.50;99.90;;;;;;6149815;23;19935;-88
2021/12/29 09:11:40;;;;;;;;;;;7.40;99.90;;;;;;6149170;23;20027;-87
2021/12/29 09:14:06;;;;;;;;;;;7.40;99.90;;;;;;6125769;23;19931;-86
2021/12/29 09:16:32;;;;;;;;;;;7.50;99.90;;;;;;6148179;23;20253;-86
2021/12/29 09:18:57;;;;;;;;;;;7.40;99.90;;;;;;6147216;23;19958;-86
2021/12/29 09:21:26;;;;;;;;;;;7.40;99.90;;;;;;6123424;23;19925;-87
2021/12/29 09:23:51;;;;;;;;;;;7.50;99.90;;;;;;6148344;23;19999;-87
2021/12/29 09:26:17;;;;;;;;;;;7.50;99.90;;;;;;6148096;23;19960;-85
2021/12/29 09:28:43;;;;;;;;;;;7.50;99.90;;;;;;6147384;23;20026;-87
2021/12/29 09:31:09;;;;;;;;;;;7.50;99.90;;;;;;6148359;23;19921;-85
2021/12/29 09:33:34;;;;;;;;;;;7.50;99.90;;;;;;6123786;23;20325;-84
2021/12/29 09:36:03;;;;;;;;;;;7.50;99.90;;;;;;6123618;23;19924;-86
2021/12/29 09:38:32;;;;;;;;;;;7.50;99.90;;;;;;6146464;23;19920;-86
2021/12/29 09:40:57;;;;;;;;;;;7.50;99.90;;;;;;6121643;23;19928;-86
2021/12/29 09:43:23;;;;;;;;;;;7.50;99.90;;;;;;6148811;23;19925;-86
2021/12/29 09:45:49;;;;;;;;;;;7.60;99.90;;;;;;6148994;23;19956;-87
2021/12/29 09:48:15;;;;;;;;;;;7.60;99.90;;;;;;6123584;23;19964;-86
2021/12/29 09:50:41;;;;;;;;;;;7.60;99.90;;;;;;6149256;23;19924;-86
2021/12/29 09:53:07;;;;;;;;;;;7.60;99.90;;;;;;6150849;23;19923;-86
2021/12/29 09:55:33;;;;;;;;;;;7.60;99.90;;;;;;6122908;23;19921;-86
2021/12/29 09:57:59;;;;;;;;;;;7.60;99.90;;;;;;6149359;23;19920;-86
2021/12/29 10:00:24;;;;;;;;;;;7.60;99.90;;;;;;6149616;23;19942;-87
2021/12/29 10:02:50;;;;;;;;;;;7.70;99.90;;;;;;6151000;23;20300;-86
2021/12/29 10:05:16;;;;;;;;;;;7.60;99.90;;;;;;6148938;23;19924;-85
2021/12/29 10:07:41;;;;;;;;;;;7.70;99.90;;;;;;6146206;23;19921;-87
2021/12/29 10:10:19;;;;;;;;;;;7.70;99.90;;;;;;6148304;23;20016;-86
2021/12/29 10:12:45;;;;;;;;;;;7.60;99.90;;;;;;6149294;23;19920;-85
2021/12/29 10:15:11;;;;;;;;;;;7.70;99.90;;;;;;6148730;23;19921;-86
2021/12/29 10:17:37;;;;;;;;;;;7.70;99.90;;;;;;6148003;23;20356;-85
2021/12/29 10:20:08;;;;;;;;;;;7.70;99.90;;;;;;6147864;23;19999;-86
2021/12/29 10:22:33;;;;;;;;;;;7.70;99.90;;;;;;6122794;23;19920;-86
2021/12/29 10:25:02;;;;;;;;;;;7.80;99.90;;;;;;6146877;23;20451;-87
2021/12/29 10:27:29;;;;;;;;;;;7.80;99.90;;;;;;6148655;23;19924;-85
2021/12/29 10:29:54;;;;;;;;;;;7.80;99.90;;;;;;6147904;23;19925;-85
2021/12/29 10:32:24;;;;;;;;;;;7.80;99.90;;;;;;6148476;23;20003;-86
2021/12/29 10:34:51;;;;;;;;;;;7.80;99.90;;;;;;6148316;23;19930;-86
2021/12/29 10:37:17;;;;;;;;;;;7.80;99.90;;;;;;6121897;23;20003;-84
2021/12/29 10:39:47;;;;;;;;;;;7.90;99.90;;;;;;6147388;23;19999;-86
2021/12/29 10:42:12;;;;;;;;;;;7.90;99.90;;;;;;6149942;23;20004;-85
2021/12/29 10:44:42;;;;;;;;;;;7.90;99.90;;;;;;6151720;23;19920;-85
2021/12/29 10:47:17;;;;;;;;;;;7.90;99.90;;;;;;6154316;23;19925;-84
2021/12/29 10:49:55;;;;;;;;;;;7.90;99.90;;;;;;6151995;23;20027;-86
2021/12/29 10:52:27;;;;;;;;;;;7.90;99.90;;;;;;6152334;23;20371;-87
2021/12/29 10:54:53;;;;;;;;;;;8.00;99.90;;;;;;6152513;23;19920;-85
2021/12/29 10:57:19;;;;;;;;;;;8.00;99.90;;;;;;6151642;23;19920;-84
2021/12/29 10:59:44;;;;;;;;;;;8.00;99.90;;;;;;6127428;23;20175;-83
2021/12/29 11:02:11;;;;;;;;;;;8.00;99.90;;;;;;6124934;23;19967;-85
2021/12/29 11:04:37;;;;;;;;;;;8.00;99.90;;;;;;6146923;23;19948;-83
2021/12/29 11:07:03;;;;;;;;;;;8.00;99.90;;;;;;6147214;23;19920;-86
2021/12/29 11:09:28;;;;;;;;;;;8.00;99.90;;;;;;6146919;23;19987;-84
2021/12/29 11:11:54;;;;;;;;;;;8.00;99.90;;;;;;6146322;23;20314;-85
2021/12/29 11:14:28;;;;;;;;;;;8.00;99.90;;;;;;6148025;23;19920;-85
2021/12/29 11:17:00;;;;;;;;;;;8.00;99.90;;;;;;6148115;23;19928;-85
2021/12/29 11:19:25;;;;;;;;;;;8.00;99.90;;;;;;6146809;23;20024;-85
2021/12/29 11:21:51;;;;;;;;;;;8.00;99.90;;;;;;6148156;23;19931;-86
2021/12/29 11:24:17;;;;;;;;;;;8.10;99.90;;;;;;6121729;23;19925;-86
2021/12/29 11:26:44;;;;;;;;;;;8.00;99.90;;;;;;6146770;23;20035;-85
2021/12/29 11:29:13;;;;;;;;;;;8.00;99.90;;;;;;6148435;23;19921;-87
2021/12/29 11:31:41;;;;;;;;;;;8.00;99.90;;;;;;6147724;23;19931;-84
2021/12/29 11:34:18;;;;;;;;;;;8.00;99.90;;;;;;6123591;23;20222;-85
2021/12/29 11:36:44;;;;;;;;;;;8.00;99.90;;;;;;6148017;23;19947;-86
2021/12/29 11:39:09;;;;;;;;;;;8.00;99.90;;;;;;6145346;23;19953;-84
2021/12/29 11:41:35;;;;;;;;;;;8.10;99.90;;;;;;6122260;23;19925;-87
2021/12/29 11:44:01;;;;;;;;;;;8.00;99.90;;;;;;6148933;23;20014;-85
2021/12/29 11:46:26;;;;;;;;;;;8.00;99.90;;;;;;6147319;23;19996;-86
2021/12/29 11:48:52;;;;;;;;;;;8.00;99.90;;;;;;6147985;23;19920;-85
2021/12/29 11:51:27;;;;;;;;;;;8.00;99.90;;;;;;6123635;23;20342;-85
2021/12/29 11:53:57;;;;;;;;;;;8.00;99.90;;;;;;6147109;23;19927;-86
2021/12/29 11:56:23;;;;;;;;;;;8.00;99.90;;;;;;6146553;23;19920;-85
2021/12/29 11:58:49;;;;;;;;;;;8.10;99.90;;;;;;6148484;23;19917;-85
2021/12/29 12:01:17;;;;;;;;;;;8.00;99.90;;;;;;6146891;23;19944;-86
2021/12/29 12:03:44;;;;;;;;;;;8.00;99.90;;;;;;6151415;23;19956;-86
2021/12/29 12:06:21;;;;;;;;;;;8.00;99.90;;;;;;6124016;23;19936;-86
2021/12/29 12:08:46;;;;;;;;;;;8.10;99.90;;;;;;6123569;23;19921;-86
2021/12/29 12:11:32;;;;;;;;;;;8.00;99.90;;;;;;6150050;23;19925;-87
2021/12/29 12:13:58;;;;;;;;;;;8.10;99.90;;;;;;6121208;23;19956;-87
2021/12/29 12:16:26;;;;;;;;;;;8.10;99.90;;;;;;6124271;23;20411;-85
2021/12/29 12:18:53;;;;;;;;;;;8.10;99.90;;;;;;6122560;23;19963;-85
2021/12/29 12:21:20;;;;;;;;;;;8.10;99.90;;;;;;6148361;23;19920;-85
2021/12/29 12:23:46;;;;;;;;;;;8.30;99.90;;;;;;6148771;23;19999;-86
2021/12/29 12:26:11;;;;;;;;;;;8.10;99.90;;;;;;6148600;23;19951;-86
2021/12/29 12:28:44;;;;;;;;;;;8.10;99.90;;;;;;6121507;23;19928;-85
2021/12/29 12:31:19;;;;;;;;;;;8.10;99.90;;;;;;6123952;23;19920;-84
2021/12/29 12:33:45;;;;;;;;;;;8.10;99.90;;;;;;6148812;23;20007;-87
2021/12/29 12:36:10;;;;;;;;;;;8.10;99.90;;;;;;6147438;23;19920;-87
2021/12/29 12:38:37;;;;;;;;;;;8.10;99.90;;;;;;6124087;23;20250;-85
2021/12/29 12:41:08;;;;;;;;;;;8.10;99.90;;;;;;6123401;23;20246;-85
2021/12/29 12:43:34;;;;;;;;;;;8.10;99.90;;;;;;6122136;23;20439;-85
2021/12/29 12:46:00;;;;;;;;;;;8.10;99.90;;;;;;6151441;23;19925;-85
2021/12/29 12:48:27;;;;;;;;;;;8.10;99.90;;;;;;6147326;23;19932;-85
2021/12/29 12:50:53;;;;;;;;;;;8.10;99.90;;;;;;6148527;23;19967;-86
2021/12/29 12:53:28;;;;;;;;;;;8.10;99.90;;;;;;6149461;23;20222;-85
2021/12/29 12:55:56;;;;;;;;;;;8.10;99.90;;;;;;6149095;23;20012;-84
2021/12/29 12:58:22;;;;;;;;;;;8.10;99.90;;;;;;6148602;23;20257;-85
2021/12/29 13:00:49;;;;;;;;;;;8.10;99.90;;;;;;6149317;23;20011;-85
2021/12/29 13:03:17;;;;;;;;;;;8.10;99.90;;;;;;6124025;23;19929;-88
2021/12/29 13:05:45;;;;;;;;;;;8.10;99.90;;;;;;6149279;23;19927;-85
2021/12/29 13:08:15;;;;;;;;;;;8.10;99.90;;;;;;6148853;23;19920;-86
2021/12/29 13:10:45;;;;;;;;;;;8.10;99.90;;;;;;6149220;23;20312;-87
2021/12/29 13:13:15;;;;;;;;;;;8.00;99.90;;;;;;6147596;23;19924;-85
2021/12/29 13:15:51;;;;;;;;;;;8.00;99.90;;;;;;6149395;23;20000;-86
2021/12/29 13:18:17;;;;;;;;;;;8.00;99.90;;;;;;6123409;23;19967;-86
2021/12/29 13:20:44;;;;;;;;;;;8.10;99.90;;;;;;6149982;23;19921;-87
2021/12/29 13:23:11;;;;;;;;;;;8.00;99.90;;;;;;6148792;23;19921;-86
2021/12/29 13:25:38;;;;;;;;;;;8.00;99.90;;;;;;6147915;23;20249;-86
2021/12/29 13:28:06;;;;;;;;;;;8.00;99.90;;;;;;6120735;23;19975;-87
2021/12/29 13:30:37;;;;;;;;;;;8.00;99.90;;;;;;6148159;23;19931;-87
2021/12/29 13:33:03;;;;;;;;;;;8.00;99.90;;;;;;6148390;23;20020;-88
2021/12/29 13:35:33;;;;;;;;;;;8.00;99.90;;;;;;6145623;23;20208;-90
2021/12/29 13:38:00;;;;;;;;;;;8.00;99.90;;;;;;6144537;23;19948;-87
2021/12/29 13:40:30;;;;;;;;;;;8.00;99.90;;;;;;6116972;23;19955;-87
2021/12/29 13:42:55;;;;;;;;;;;7.90;99.90;;;;;;6149244;23;19943;-85
2021/12/29 13:45:25;;;;;;;;;;;7.90;99.90;;;;;;6121979;23;19921;-89
2021/12/29 13:47:51;;;;;;;;;;;7.90;99.90;;;;;;6147825;23;19920;-86
2021/12/29 13:50:17;;;;;;;;;;;7.90;99.90;;;;;;6148540;23;19920;-86
2021/12/29 13:53:02;;;;;;;;;;;7.90;99.90;;;;;;6148770;23;19925;-85
2021/12/29 13:55:30;;;;;;;;;;;7.90;99.90;;;;;;6121755;23;19921;-86
2021/12/29 13:57:57;;;;;;;;;;;7.90;99.90;;;;;;6149046;23;19975;-85
2021/12/29 14:00:23;;;;;;;;;;;7.90;99.90;;;;;;6144158;23;20142;-86
2021/12/29 14:02:49;;;;;;;;;;;7.80;99.90;;;;;;6146273;23;20301;-86
2021/12/29 14:05:15;;;;;;;;;;;7.80;99.90;;;;;;6146564;23;19998;-86
2021/12/29 14:07:40;;;;;;;;;;;7.80;99.90;;;;;;6143491;23;19924;-87
2021/12/29 14:10:07;;;;;;;;;;;7.80;99.90;;;;;;6143099;23;19943;-86
2021/12/29 14:12:35;;;;;;;;;;;7.80;99.90;;;;;;6144252;23;20046;-86
2021/12/29 14:15:03;;;;;;;;;;;7.70;99.90;;;;;;6118969;23;19944;-85
2021/12/29 14:17:36;;;;;;;;;;;7.70;99.90;;;;;;6145058;23;19962;-84
2021/12/29 14:20:06;;;;;;;;;;;7.60;99.90;;;;;;6123055;23;19920;-86
2021/12/29 14:22:31;;;;;;;;;;;7.60;99.90;;;;;;6146358;23;20100;-85
2021/12/29 14:25:06;;;;;;;;;;;7.60;99.90;;;;;;6144130;23;19999;-87
2021/12/29 14:27:34;;;;;;;;;;;7.60;99.90;;;;;;6118197;23;20303;-85
2021/12/29 14:30:11;;;;;;;;;;;7.50;99.90;;;;;;6121195;23;19925;-86